createdAt,value
2018-03-31T00:00:17.521Z,974.08
2018-03-31T00:01:17.682Z,974.07
2018-03-31T00:02:17.846Z,974.13
2018-03-31T00:03:18.020Z,974.10
2018-03-31T00:04:18.164Z,974.12
2018-03-31T00:05:18.334Z,974.09
2018-03-31T00:06:20.555Z,974.04
2018-03-31T00:07:18.659Z,974.05
2018-03-31T00:08:18.811Z,974.02
2018-03-31T00:09:18.997Z,974.04
2018-03-31T00:10:19.166Z,974.05
2018-03-31T00:11:19.345Z,974.05
2018-03-31T00:12:19.505Z,974.01
2018-03-31T00:13:19.719Z,974.01
2018-03-31T00:14:19.831Z,974.01
2018-03-31T00:15:20.029Z,974.02
2018-03-31T00:16:20.189Z,974.08
2018-03-31T00:17:20.339Z,974.06
2018-03-31T00:18:20.501Z,974.03
2018-03-31T00:19:20.675Z,974.02
2018-03-31T00:20:20.842Z,974.02
2018-03-31T00:21:21.004Z,973.95
2018-03-31T00:22:21.193Z,973.98
2018-03-31T00:23:21.341Z,974.00
2018-03-31T00:24:21.519Z,973.98
2018-03-31T00:25:21.685Z,974.02
2018-03-31T00:26:21.850Z,973.95
2018-03-31T00:27:22.015Z,973.97
2018-03-31T00:28:22.206Z,973.99
2018-03-31T00:29:22.335Z,973.93
2018-03-31T00:30:22.493Z,973.93
2018-03-31T00:31:22.662Z,973.98
2018-03-31T00:32:22.820Z,973.95
2018-03-31T00:33:22.985Z,973.92
2018-03-31T00:34:23.147Z,973.84
2018-03-31T00:35:23.327Z,973.87
2018-03-31T00:36:23.485Z,973.83
2018-03-31T00:37:23.655Z,973.85
2018-03-31T00:38:23.816Z,973.86
2018-03-31T00:39:23.973Z,973.87
2018-03-31T00:40:24.142Z,973.88
2018-03-31T00:41:24.293Z,973.85
2018-03-31T00:42:24.459Z,973.82
2018-03-31T00:43:24.631Z,973.81
2018-03-31T00:44:24.800Z,973.81
2018-03-31T00:45:24.993Z,973.74
2018-03-31T00:46:25.150Z,973.76
2018-03-31T00:47:25.314Z,973.69
2018-03-31T00:48:25.470Z,973.72
2018-03-31T00:49:25.643Z,973.71
2018-03-31T00:50:25.809Z,973.76
2018-03-31T00:51:25.979Z,973.69
2018-03-31T00:52:26.167Z,973.68
2018-03-31T00:53:26.319Z,973.69
2018-03-31T00:54:26.468Z,973.67
2018-03-31T00:55:26.657Z,973.66
2018-03-31T00:56:26.793Z,973.63
2018-03-31T00:57:26.962Z,973.66
2018-03-31T00:58:27.160Z,973.63
2018-03-31T00:59:27.303Z,973.63
2018-03-31T01:00:27.513Z,973.66
2018-03-31T01:01:27.879Z,973.68
2018-03-31T01:02:27.786Z,973.59
2018-03-31T01:03:27.974Z,973.60
2018-03-31T01:05:28.326Z,973.52
2018-03-31T01:06:28.491Z,973.50
2018-03-31T01:07:28.688Z,973.49
2018-03-31T01:08:28.814Z,973.58
2018-03-31T01:09:29.009Z,973.57
2018-03-31T01:10:29.156Z,973.58
2018-03-31T01:11:29.335Z,973.64
2018-03-31T01:12:29.479Z,973.61
2018-03-31T01:13:29.637Z,973.60
2018-03-31T01:14:30.175Z,973.61
2018-03-31T01:15:30.010Z,973.59
2018-03-31T01:16:30.189Z,973.64
2018-03-31T01:18:30.507Z,973.72
2018-03-31T01:19:30.697Z,973.70
2018-03-31T01:20:30.903Z,973.73
2018-03-31T01:21:31.015Z,973.68
2018-03-31T01:22:31.180Z,973.73
2018-03-31T01:23:31.340Z,973.72
2018-03-31T01:24:31.518Z,973.72
2018-03-31T01:25:31.681Z,973.73
2018-03-31T01:26:31.865Z,973.74
2018-03-31T01:27:32.024Z,973.74
2018-03-31T01:28:32.173Z,973.72
2018-03-31T01:29:32.363Z,973.72
2018-03-31T01:30:32.604Z,973.70
2018-03-31T01:31:32.764Z,973.75
2018-03-31T01:32:32.863Z,973.75
2018-03-31T01:33:33.020Z,973.72
2018-03-31T01:34:33.196Z,973.76
2018-03-31T01:35:33.382Z,973.82
2018-03-31T01:36:33.548Z,973.83
2018-03-31T01:37:33.704Z,973.83
2018-03-31T01:38:33.892Z,973.87
2018-03-31T01:39:34.047Z,973.84
2018-03-31T01:40:34.246Z,973.84
2018-03-31T01:41:34.391Z,973.83
2018-03-31T01:42:34.552Z,973.79
2018-03-31T01:43:34.721Z,973.77
2018-03-31T01:44:34.895Z,973.81
2018-03-31T01:45:35.045Z,973.78
2018-03-31T01:46:35.213Z,973.75
2018-03-31T01:47:35.426Z,973.74
2018-03-31T01:48:35.581Z,973.81
2018-03-31T01:49:35.752Z,973.75
2018-03-31T01:50:36.184Z,973.73
2018-03-31T01:51:36.077Z,973.70
2018-03-31T01:52:36.246Z,973.67
2018-03-31T01:53:36.431Z,973.67
2018-03-31T01:54:36.595Z,973.66
2018-03-31T01:55:36.741Z,973.62
2018-03-31T01:56:36.911Z,973.63
2018-03-31T01:57:37.076Z,973.66
2018-03-31T01:58:37.229Z,973.63
2018-03-31T01:59:37.414Z,973.62
2018-03-31T02:00:37.565Z,973.57
2018-03-31T02:01:37.715Z,973.57
2018-03-31T02:02:37.884Z,973.54
2018-03-31T02:03:38.063Z,973.54
2018-03-31T02:04:38.220Z,973.52
2018-03-31T02:05:38.435Z,973.49
2018-03-31T02:06:38.569Z,973.49
2018-03-31T02:07:38.748Z,973.49
2018-03-31T02:08:38.891Z,973.45
2018-03-31T02:09:39.060Z,973.45
2018-03-31T02:10:39.265Z,973.43
2018-03-31T02:11:39.398Z,973.50
2018-03-31T02:12:39.562Z,973.52
2018-03-31T02:13:39.711Z,973.56
2018-03-31T02:14:39.881Z,973.55
2018-03-31T02:15:40.058Z,973.57
2018-03-31T02:16:40.208Z,973.53
2018-03-31T02:17:40.376Z,973.54
2018-03-31T02:18:40.553Z,973.54
2018-03-31T02:19:40.718Z,973.52
2018-03-31T02:20:40.883Z,973.49
2018-03-31T02:21:41.062Z,973.51
2018-03-31T02:22:41.242Z,973.54
2018-03-31T02:23:41.389Z,973.51
2018-03-31T02:24:41.553Z,973.52
2018-03-31T02:25:41.717Z,973.56
2018-03-31T02:26:41.895Z,973.60
2018-03-31T02:27:42.074Z,973.60
2018-03-31T02:28:42.222Z,973.54
2018-03-31T02:29:42.392Z,973.58
2018-03-31T02:30:42.575Z,973.54
2018-03-31T02:31:42.746Z,973.55
2018-03-31T02:32:42.907Z,973.56
2018-03-31T02:33:43.079Z,973.53
2018-03-31T02:34:43.258Z,973.48
2018-03-31T02:35:43.406Z,973.47
2018-03-31T02:36:43.593Z,973.50
2018-03-31T02:37:43.773Z,973.46
2018-03-31T02:38:43.936Z,973.47
2018-03-31T02:39:44.070Z,973.47
2018-03-31T02:40:44.238Z,973.46
2018-03-31T02:41:44.413Z,973.46
2018-03-31T02:42:44.577Z,973.48
2018-03-31T02:43:44.746Z,973.50
2018-03-31T02:44:44.929Z,973.54
2018-03-31T02:45:45.100Z,973.50
2018-03-31T02:46:45.235Z,973.49
2018-03-31T02:47:45.424Z,973.51
2018-03-31T02:48:45.585Z,973.48
2018-03-31T02:49:45.773Z,973.43
2018-03-31T02:50:45.927Z,973.45
2018-03-31T02:51:46.111Z,973.43
2018-03-31T02:52:46.276Z,973.41
2018-03-31T02:53:46.425Z,973.42
2018-03-31T02:54:46.583Z,973.42
2018-03-31T02:55:46.766Z,973.40
2018-03-31T02:56:47.002Z,973.39
2018-03-31T02:57:47.091Z,973.41
2018-03-31T02:58:47.257Z,973.37
2018-03-31T02:59:47.411Z,973.38
2018-03-31T03:00:47.580Z,973.34
2018-03-31T03:01:47.770Z,973.36
2018-03-31T03:02:47.932Z,973.36
2018-03-31T03:03:48.130Z,973.34
2018-03-31T03:04:48.263Z,973.31
2018-03-31T03:05:48.437Z,973.29
2018-03-31T03:06:48.600Z,973.33
2018-03-31T03:07:48.788Z,973.33
2018-03-31T03:08:48.928Z,973.29
2018-03-31T03:09:49.120Z,973.30
2018-03-31T03:10:49.288Z,973.33
2018-03-31T03:11:49.452Z,973.33
2018-03-31T03:12:49.616Z,973.32
2018-03-31T03:13:49.790Z,973.38
2018-03-31T03:14:49.935Z,973.39
2018-03-31T03:15:50.098Z,973.39
2018-03-31T03:16:50.272Z,973.40
2018-03-31T03:17:50.771Z,973.37
2018-03-31T03:18:50.637Z,973.37
2018-03-31T03:19:50.785Z,973.37
2018-03-31T03:20:50.953Z,973.41
2018-03-31T03:21:51.105Z,973.38
2018-03-31T03:22:51.293Z,973.41
2018-03-31T03:23:51.428Z,973.43
2018-03-31T03:24:51.597Z,973.44
2018-03-31T03:25:51.763Z,973.42
2018-03-31T03:26:51.965Z,973.38
2018-03-31T03:27:52.358Z,973.44
2018-03-31T03:28:52.258Z,973.42
2018-03-31T03:29:52.431Z,973.41
2018-03-31T03:30:52.598Z,973.44
2018-03-31T03:31:52.819Z,973.47
2018-03-31T03:32:52.917Z,973.42
2018-03-31T03:33:53.081Z,973.41
2018-03-31T03:34:53.250Z,973.47
2018-03-31T03:35:53.432Z,973.44
2018-03-31T03:36:53.652Z,973.45
2018-03-31T03:37:53.791Z,973.47
2018-03-31T03:38:53.969Z,973.48
2018-03-31T03:39:54.088Z,973.47
2018-03-31T03:40:54.257Z,973.44
2018-03-31T03:41:54.417Z,973.41
2018-03-31T03:42:54.598Z,973.45
2018-03-31T03:43:54.771Z,973.42
2018-03-31T03:44:54.937Z,973.43
2018-03-31T03:45:55.112Z,973.43
2018-03-31T03:46:55.317Z,973.42
2018-03-31T03:47:55.434Z,973.46
2018-03-31T03:48:55.623Z,973.43
2018-03-31T03:49:55.777Z,973.45
2018-03-31T03:50:55.921Z,973.46
2018-03-31T03:51:56.101Z,973.48
2018-03-31T03:52:56.264Z,973.44
2018-03-31T03:53:56.434Z,973.41
2018-03-31T03:54:56.635Z,973.43
2018-03-31T03:55:56.779Z,973.45
2018-03-31T03:56:56.929Z,973.45
2018-03-31T03:57:57.097Z,973.42
2018-03-31T03:58:57.251Z,973.40
2018-03-31T03:59:57.462Z,973.39
2018-03-31T04:00:57.614Z,973.39
2018-03-31T04:01:57.782Z,973.33
2018-03-31T04:02:57.932Z,973.38
2018-03-31T04:03:58.104Z,973.35
2018-03-31T04:04:58.263Z,973.36
2018-03-31T04:05:58.463Z,973.35
2018-03-31T04:06:58.591Z,973.32
2018-03-31T04:07:58.771Z,973.32
2018-03-31T04:08:58.955Z,973.33
2018-03-31T04:09:59.109Z,973.38
2018-03-31T04:10:59.281Z,973.38
2018-03-31T04:11:59.465Z,973.36
2018-03-31T04:12:59.640Z,973.32
2018-03-31T04:13:59.792Z,973.33
2018-03-31T04:14:59.977Z,973.32
2018-03-31T04:16:00.141Z,973.32
2018-03-31T04:17:00.310Z,973.31
2018-03-31T04:18:00.478Z,973.28
2018-03-31T04:19:00.657Z,973.32
2018-03-31T04:20:00.820Z,973.25
2018-03-31T04:21:00.969Z,973.30
2018-03-31T04:22:01.134Z,973.28
2018-03-31T04:23:01.314Z,973.28
2018-03-31T04:24:01.493Z,973.29
2018-03-31T04:25:01.631Z,973.29
2018-03-31T04:26:01.789Z,973.27
2018-03-31T04:27:01.983Z,973.27
2018-03-31T04:28:02.146Z,973.22
2018-03-31T04:29:02.286Z,973.24
2018-03-31T04:30:02.471Z,973.26
2018-03-31T04:31:02.660Z,973.27
2018-03-31T04:32:02.788Z,973.28
2018-03-31T04:33:02.968Z,973.27
2018-03-31T04:34:03.125Z,973.25
2018-03-31T04:35:03.317Z,973.25
2018-03-31T04:36:03.490Z,973.26
2018-03-31T04:37:03.661Z,973.27
2018-03-31T04:38:03.840Z,973.29
2018-03-31T04:39:04.035Z,973.25
2018-03-31T04:40:04.182Z,973.27
2018-03-31T04:41:04.359Z,973.27
2018-03-31T04:42:04.534Z,973.29
2018-03-31T04:43:04.696Z,973.28
2018-03-31T04:44:04.942Z,973.26
2018-03-31T04:45:05.094Z,973.27
2018-03-31T04:46:05.307Z,973.25
2018-03-31T04:47:05.450Z,973.24
2018-03-31T04:48:05.592Z,973.24
2018-03-31T04:49:05.756Z,973.24
2018-03-31T04:50:05.919Z,973.24
2018-03-31T04:51:06.077Z,973.29
2018-03-31T04:52:06.234Z,973.30
2018-03-31T04:53:06.414Z,973.31
2018-03-31T04:54:06.581Z,973.33
2018-03-31T04:55:06.771Z,973.35
2018-03-31T04:56:06.929Z,973.33
2018-03-31T04:57:07.126Z,973.38
2018-03-31T04:58:07.305Z,973.36
2018-03-31T04:59:07.445Z,973.33
2018-03-31T05:00:07.637Z,973.32
2018-03-31T05:01:07.792Z,973.33
2018-03-31T05:02:07.991Z,973.33
2018-03-31T05:03:08.190Z,973.32
2018-03-31T05:04:08.343Z,973.26
2018-03-31T05:05:08.499Z,973.33
2018-03-31T05:06:08.650Z,973.30
2018-03-31T05:07:08.838Z,973.33
2018-03-31T05:08:08.994Z,973.33
2018-03-31T05:09:09.156Z,973.34
2018-03-31T05:10:09.346Z,973.33
2018-03-31T05:11:09.499Z,973.29
2018-03-31T05:12:09.710Z,973.29
2018-03-31T05:13:09.830Z,973.32
2018-03-31T05:14:10.028Z,973.31
2018-03-31T05:15:10.165Z,973.30
2018-03-31T05:16:10.345Z,973.27
2018-03-31T05:17:10.513Z,973.28
2018-03-31T05:18:10.697Z,973.28
2018-03-31T05:19:10.841Z,973.29
2018-03-31T05:20:11.034Z,973.28
2018-03-31T05:21:11.201Z,973.30
2018-03-31T05:22:11.405Z,973.28
2018-03-31T05:23:11.552Z,973.29
2018-03-31T05:24:11.730Z,973.31
2018-03-31T05:25:11.926Z,973.32
2018-03-31T05:26:12.066Z,973.34
2018-03-31T05:27:12.234Z,973.35
2018-03-31T05:28:12.422Z,973.34
2018-03-31T05:29:12.575Z,973.36
2018-03-31T05:30:12.743Z,973.40
2018-03-31T05:31:12.901Z,973.39
2018-03-31T05:32:13.082Z,973.41
2018-03-31T05:33:13.237Z,973.43
2018-03-31T05:34:13.407Z,973.41
2018-03-31T05:35:13.561Z,973.43
2018-03-31T05:36:13.736Z,973.43
2018-03-31T05:37:13.914Z,973.44
2018-03-31T05:38:14.081Z,973.46
2018-03-31T05:39:14.262Z,973.43
2018-03-31T05:40:14.474Z,973.46
2018-03-31T05:41:14.578Z,973.46
2018-03-31T05:42:14.772Z,973.47
2018-03-31T05:43:14.907Z,973.48
2018-03-31T05:44:15.076Z,973.49
2018-03-31T05:45:15.239Z,973.49
2018-03-31T05:46:15.409Z,973.54
2018-03-31T05:47:15.577Z,973.51
2018-03-31T05:48:15.772Z,973.51
2018-03-31T05:49:15.915Z,973.54
2018-03-31T05:50:16.108Z,973.61
2018-03-31T05:51:16.265Z,973.57
2018-03-31T05:52:16.500Z,973.59
2018-03-31T05:53:16.650Z,973.62
2018-03-31T05:54:16.759Z,973.65
2018-03-31T05:55:16.930Z,973.64
2018-03-31T05:56:17.076Z,973.66
2018-03-31T05:57:17.313Z,973.66
2018-03-31T05:58:17.433Z,973.62
2018-03-31T05:59:17.596Z,973.60
2018-03-31T06:00:17.790Z,973.58
2018-03-31T06:01:17.974Z,973.61
2018-03-31T06:02:18.150Z,973.58
2018-03-31T06:03:18.328Z,973.59
2018-03-31T06:04:18.511Z,973.59
2018-03-31T06:05:18.638Z,973.54
2018-03-31T06:06:18.799Z,973.58
2018-03-31T06:07:18.965Z,973.56
2018-03-31T06:08:19.158Z,973.57
2018-03-31T06:09:19.323Z,973.56
2018-03-31T06:10:19.495Z,973.57
2018-03-31T06:11:19.649Z,973.57
2018-03-31T06:12:19.850Z,973.56
2018-03-31T06:13:19.990Z,973.61
2018-03-31T06:14:20.182Z,973.63
2018-03-31T06:15:20.328Z,973.62
2018-03-31T06:16:20.522Z,973.64
2018-03-31T06:17:20.655Z,973.69
2018-03-31T06:18:20.881Z,973.66
2018-03-31T06:19:20.989Z,973.67
2018-03-31T06:20:21.148Z,973.67
2018-03-31T06:21:21.299Z,973.67
2018-03-31T06:22:21.521Z,973.62
2018-03-31T06:23:21.638Z,973.65
2018-03-31T06:24:21.788Z,973.66
2018-03-31T06:25:21.974Z,973.69
2018-03-31T06:26:22.143Z,973.70
2018-03-31T06:27:22.557Z,973.74
2018-03-31T06:28:22.469Z,973.75
2018-03-31T06:29:22.640Z,973.70
2018-03-31T06:30:22.837Z,973.74
2018-03-31T06:31:22.961Z,973.74
2018-03-31T06:32:23.126Z,973.78
2018-03-31T06:33:23.299Z,973.78
2018-03-31T06:34:23.483Z,973.80
2018-03-31T06:35:23.645Z,973.77
2018-03-31T06:36:23.799Z,973.79
2018-03-31T06:37:24.285Z,973.76
2018-03-31T06:38:24.137Z,973.76
2018-03-31T06:39:24.319Z,973.79
2018-03-31T06:40:24.738Z,973.77
2018-03-31T06:41:24.654Z,973.80
2018-03-31T06:42:24.841Z,973.79
2018-03-31T06:43:25.036Z,973.80
2018-03-31T06:44:25.333Z,973.83
2018-03-31T06:45:25.381Z,973.81
2018-03-31T06:46:25.519Z,973.84
2018-03-31T06:47:25.680Z,973.85
2018-03-31T06:48:25.849Z,973.79
2018-03-31T06:49:26.016Z,973.85
2018-03-31T06:50:26.207Z,973.84
2018-03-31T06:51:26.451Z,973.85
2018-03-31T06:52:26.563Z,973.86
2018-03-31T06:53:26.731Z,973.88
2018-03-31T06:54:26.929Z,973.85
2018-03-31T06:55:27.133Z,973.89
2018-03-31T06:56:27.314Z,973.92
2018-03-31T06:57:27.474Z,973.88
2018-03-31T06:58:27.637Z,973.85
2018-03-31T06:59:27.832Z,973.83
2018-03-31T07:00:28.013Z,973.82
2018-03-31T07:01:28.209Z,973.84
2018-03-31T07:02:28.343Z,973.79
2018-03-31T07:03:28.527Z,973.84
2018-03-31T07:04:28.690Z,973.87
2018-03-31T07:05:28.835Z,973.83
2018-03-31T07:06:29.000Z,973.82
2018-03-31T07:07:29.182Z,973.82
2018-03-31T07:08:29.335Z,973.83
2018-03-31T07:09:29.494Z,973.81
2018-03-31T07:10:29.659Z,973.80
2018-03-31T07:11:29.841Z,973.83
2018-03-31T07:12:29.988Z,973.80
2018-03-31T07:14:30.341Z,973.81
2018-03-31T07:15:30.551Z,973.81
2018-03-31T07:16:30.664Z,973.79
2018-03-31T07:17:30.842Z,973.78
2018-03-31T07:18:30.989Z,973.78
2018-03-31T07:19:31.183Z,973.77
2018-03-31T07:20:31.337Z,973.78
2018-03-31T07:21:31.516Z,973.79
2018-03-31T07:22:31.664Z,973.82
2018-03-31T07:23:31.850Z,973.81
2018-03-31T07:24:31.992Z,973.74
2018-03-31T07:25:32.204Z,973.72
2018-03-31T07:27:32.559Z,973.73
2018-03-31T07:28:32.703Z,973.75
2018-03-31T07:29:32.908Z,973.71
2018-03-31T07:30:33.066Z,973.69
2018-03-31T07:31:33.233Z,973.68
2018-03-31T07:32:33.422Z,973.71
2018-03-31T07:33:33.574Z,973.74
2018-03-31T07:34:33.765Z,973.77
2018-03-31T07:35:33.929Z,973.74
2018-03-31T07:36:34.084Z,973.80
2018-03-31T07:37:34.253Z,973.77
2018-03-31T07:38:34.431Z,973.78
2018-03-31T07:39:34.579Z,973.79
2018-03-31T07:40:34.743Z,973.82
2018-03-31T07:41:34.923Z,973.82
2018-03-31T07:42:35.086Z,973.79
2018-03-31T07:43:35.273Z,973.82
2018-03-31T07:44:35.438Z,973.79
2018-03-31T07:45:35.609Z,973.79
2018-03-31T07:46:35.775Z,973.78
2018-03-31T07:47:35.937Z,973.82
2018-03-31T07:48:36.106Z,973.75
2018-03-31T07:49:36.296Z,973.78
2018-03-31T07:50:36.441Z,973.82
2018-03-31T07:51:36.643Z,973.77
2018-03-31T07:52:36.792Z,973.78
2018-03-31T07:53:37.898Z,973.76
2018-03-31T07:54:37.139Z,973.77
2018-03-31T07:55:37.300Z,973.79
2018-03-31T07:56:37.496Z,973.79
2018-03-31T07:57:37.625Z,973.79
2018-03-31T07:58:37.794Z,973.76
2018-03-31T07:59:37.970Z,973.79
2018-03-31T08:00:38.146Z,973.75
2018-03-31T08:01:38.337Z,973.74
2018-03-31T08:02:38.573Z,973.73
2018-03-31T08:03:38.707Z,973.73
2018-03-31T08:04:38.873Z,973.76
2018-03-31T08:05:39.032Z,973.74
2018-03-31T08:06:39.197Z,973.75
2018-03-31T08:07:39.378Z,973.74
2018-03-31T08:08:39.531Z,973.75
2018-03-31T08:09:39.716Z,973.75
2018-03-31T08:10:39.866Z,973.74
2018-03-31T08:11:40.010Z,973.75
2018-03-31T08:12:40.191Z,973.70
2018-03-31T08:13:40.358Z,973.73
2018-03-31T08:14:40.530Z,973.72
2018-03-31T08:15:40.694Z,973.68
2018-03-31T08:16:40.920Z,973.68
2018-03-31T08:17:41.082Z,973.68
2018-03-31T08:18:41.241Z,973.68
2018-03-31T08:19:41.368Z,973.68
2018-03-31T08:20:41.550Z,973.70
2018-03-31T08:21:41.713Z,973.70
2018-03-31T08:22:41.886Z,973.67
2018-03-31T08:23:42.054Z,973.66
2018-03-31T08:24:42.196Z,973.67
2018-03-31T08:25:42.381Z,973.66
2018-03-31T08:26:42.523Z,973.64
2018-03-31T08:27:42.676Z,973.63
2018-03-31T08:28:42.853Z,973.67
2018-03-31T08:29:43.000Z,973.65
2018-03-31T08:30:43.231Z,973.66
2018-03-31T08:31:43.356Z,973.67
2018-03-31T08:32:43.518Z,973.66
2018-03-31T08:33:43.671Z,973.69
2018-03-31T08:34:43.841Z,973.70
2018-03-31T08:35:44.013Z,973.69
2018-03-31T08:36:44.181Z,973.71
2018-03-31T08:37:44.352Z,973.75
2018-03-31T08:38:44.534Z,973.70
2018-03-31T08:39:44.676Z,973.70
2018-03-31T08:40:44.849Z,973.74
2018-03-31T08:41:45.012Z,973.76
2018-03-31T08:42:45.204Z,973.77
2018-03-31T08:43:45.380Z,973.78
2018-03-31T08:44:45.517Z,973.77
2018-03-31T08:45:45.696Z,973.73
2018-03-31T08:46:45.884Z,973.77
2018-03-31T08:47:46.055Z,973.76
2018-03-31T08:48:46.243Z,973.75
2018-03-31T08:49:46.396Z,973.79
2018-03-31T08:50:46.568Z,973.79
2018-03-31T08:51:46.728Z,973.85
2018-03-31T08:52:46.898Z,973.82
2018-03-31T08:53:47.075Z,973.86
2018-03-31T08:54:47.237Z,973.90
2018-03-31T08:55:47.387Z,973.92
2018-03-31T08:56:47.557Z,973.94
2018-03-31T08:57:47.727Z,973.96
2018-03-31T08:58:47.890Z,973.97
2018-03-31T08:59:48.081Z,973.94
2018-03-31T09:00:48.218Z,973.99
2018-03-31T09:01:48.411Z,973.99
2018-03-31T09:02:48.567Z,973.99
2018-03-31T09:03:48.727Z,973.98
2018-03-31T09:04:49.144Z,974.04
2018-03-31T09:05:49.133Z,974.03
2018-03-31T09:06:49.328Z,974.04
2018-03-31T09:07:49.472Z,974.04
2018-03-31T09:08:49.640Z,974.06
2018-03-31T09:09:49.809Z,974.04
2018-03-31T09:10:49.990Z,974.05
2018-03-31T09:11:50.168Z,974.10
2018-03-31T09:12:50.319Z,974.15
2018-03-31T09:13:50.493Z,974.14
2018-03-31T09:14:50.710Z,974.16
2018-03-31T09:15:50.899Z,974.20
2018-03-31T09:16:51.038Z,974.19
2018-03-31T09:17:51.220Z,974.21
2018-03-31T09:18:51.398Z,974.28
2018-03-31T09:19:51.560Z,974.30
2018-03-31T09:20:51.784Z,974.27
2018-03-31T09:21:51.983Z,974.30
2018-03-31T09:22:52.126Z,974.30
2018-03-31T09:23:52.296Z,974.32
2018-03-31T09:24:52.702Z,974.30
2018-03-31T09:25:52.620Z,974.29
2018-03-31T09:26:52.862Z,974.30
2018-03-31T09:27:52.928Z,974.34
2018-03-31T09:28:53.155Z,974.35
2018-03-31T09:29:54.488Z,974.34
2018-03-31T09:30:53.497Z,974.31
2018-03-31T09:31:53.660Z,974.31
2018-03-31T09:32:53.898Z,974.33
2018-03-31T09:33:54.021Z,974.35
2018-03-31T09:34:54.353Z,974.32
2018-03-31T09:35:54.407Z,974.38
2018-03-31T09:36:54.646Z,974.36
2018-03-31T09:37:54.746Z,974.36
2018-03-31T09:38:54.912Z,974.33
2018-03-31T09:39:55.101Z,974.36
2018-03-31T09:40:55.249Z,974.36
2018-03-31T09:41:55.434Z,974.30
2018-03-31T09:42:55.608Z,974.34
2018-03-31T09:43:55.751Z,974.36
2018-03-31T09:44:55.917Z,974.35
2018-03-31T09:45:56.115Z,974.35
2018-03-31T09:46:56.285Z,974.32
2018-03-31T09:47:56.462Z,974.34
2018-03-31T09:48:56.594Z,974.35
2018-03-31T09:49:57.074Z,974.33
2018-03-31T09:50:57.697Z,974.32
2018-03-31T09:51:57.291Z,974.29
2018-03-31T09:52:57.375Z,974.31
2018-03-31T09:53:57.543Z,974.32
2018-03-31T09:54:57.731Z,974.37
2018-03-31T09:55:57.919Z,974.34
2018-03-31T09:56:58.064Z,974.36
2018-03-31T09:57:58.257Z,974.36
2018-03-31T09:58:58.428Z,974.36
2018-03-31T09:59:58.593Z,974.35
2018-03-31T10:00:58.765Z,974.38
2018-03-31T10:01:58.925Z,974.39
2018-03-31T10:02:59.092Z,974.41
2018-03-31T10:03:59.314Z,974.38
2018-03-31T10:04:59.433Z,974.37
2018-03-31T10:05:59.636Z,974.37
2018-03-31T10:06:59.753Z,974.37
2018-03-31T10:07:59.954Z,974.40
2018-03-31T10:09:00.092Z,974.41
2018-03-31T10:10:00.265Z,974.33
2018-03-31T10:11:00.410Z,974.36
2018-03-31T10:12:00.584Z,974.35
2018-03-31T10:13:00.747Z,974.33
2018-03-31T10:14:00.908Z,974.35
2018-03-31T10:15:01.110Z,974.30
2018-03-31T10:16:01.246Z,974.29
2018-03-31T10:17:01.425Z,974.32
2018-03-31T10:18:01.640Z,974.30
2018-03-31T10:19:01.775Z,974.31
2018-03-31T10:20:01.943Z,974.33
2018-03-31T10:21:02.130Z,974.34
2018-03-31T10:22:02.335Z,974.33
2018-03-31T10:23:04.470Z,974.36
2018-03-31T10:24:02.603Z,974.36
2018-03-31T10:25:02.760Z,974.38
2018-03-31T10:26:02.970Z,974.34
2018-03-31T10:27:03.121Z,974.36
2018-03-31T10:28:03.273Z,974.33
2018-03-31T10:29:03.446Z,974.31
2018-03-31T10:30:03.631Z,974.27
2018-03-31T10:31:03.808Z,974.33
2018-03-31T10:32:03.955Z,974.29
2018-03-31T10:33:04.146Z,974.33
2018-03-31T10:34:04.653Z,974.28
2018-03-31T10:35:04.455Z,974.32
2018-03-31T10:36:04.623Z,974.35
2018-03-31T10:37:04.797Z,974.36
2018-03-31T10:38:05.014Z,974.38
2018-03-31T10:39:05.143Z,974.37
2018-03-31T10:40:05.320Z,974.31
2018-03-31T10:41:05.500Z,974.35
2018-03-31T10:42:05.618Z,974.35
2018-03-31T10:43:05.790Z,974.37
2018-03-31T10:44:06.289Z,974.33
2018-03-31T10:45:06.183Z,974.35
2018-03-31T10:46:06.342Z,974.33
2018-03-31T10:47:06.486Z,974.34
2018-03-31T10:48:06.671Z,974.36
2018-03-31T10:49:06.867Z,974.38
2018-03-31T10:50:07.114Z,974.44
2018-03-31T10:51:07.268Z,974.35
2018-03-31T10:52:08.093Z,974.40
2018-03-31T10:53:07.660Z,974.39
2018-03-31T10:54:07.845Z,974.35
2018-03-31T10:55:07.997Z,974.30
2018-03-31T10:56:08.131Z,974.39
2018-03-31T10:57:08.329Z,974.38
2018-03-31T10:58:08.793Z,974.36
2018-03-31T10:59:08.749Z,974.32
2018-03-31T11:00:08.956Z,974.34
2018-03-31T11:01:09.135Z,974.32
2018-03-31T11:02:09.275Z,974.34
2018-03-31T11:03:09.453Z,974.30
2018-03-31T11:04:09.622Z,974.30
2018-03-31T11:05:09.773Z,974.32
2018-03-31T11:06:09.954Z,974.31
2018-03-31T11:07:10.169Z,974.28
2018-03-31T11:08:10.324Z,974.36
2018-03-31T11:09:10.450Z,974.30
2018-03-31T11:10:10.635Z,974.31
2018-03-31T11:11:11.081Z,974.29
2018-03-31T11:12:11.000Z,974.28
2018-03-31T11:13:11.160Z,974.24
2018-03-31T11:14:11.344Z,974.30
2018-03-31T11:15:11.534Z,974.30
2018-03-31T11:16:11.667Z,974.28
2018-03-31T11:17:11.833Z,974.23
2018-03-31T11:18:12.015Z,974.22
2018-03-31T11:19:12.210Z,974.25
2018-03-31T11:20:12.341Z,974.22
2018-03-31T11:21:12.530Z,974.24
2018-03-31T11:22:12.682Z,974.23
2018-03-31T11:23:12.838Z,974.22
2018-03-31T11:24:13.033Z,974.26
2018-03-31T11:25:13.211Z,974.24
2018-03-31T11:26:13.384Z,974.22
2018-03-31T11:27:13.544Z,974.27
2018-03-31T11:28:13.735Z,974.24
2018-03-31T11:29:13.945Z,974.27
2018-03-31T11:30:14.105Z,974.29
2018-03-31T11:31:14.302Z,974.35
2018-03-31T11:32:14.504Z,974.28
2018-03-31T11:33:14.643Z,974.31
2018-03-31T11:34:14.848Z,974.30
2018-03-31T11:35:14.998Z,974.27
2018-03-31T11:36:15.182Z,974.33
2018-03-31T11:37:15.429Z,974.34
2018-03-31T11:38:15.572Z,974.32
2018-03-31T11:39:15.744Z,974.36
2018-03-31T11:40:15.903Z,974.35
2018-03-31T11:41:16.147Z,974.30
2018-03-31T11:42:16.271Z,974.29
2018-03-31T11:43:16.451Z,974.28
2018-03-31T11:44:16.626Z,974.31
2018-03-31T11:45:16.822Z,974.32
2018-03-31T11:46:17.000Z,974.30
2018-03-31T11:47:17.166Z,974.26
2018-03-31T11:48:17.328Z,974.28
2018-03-31T11:49:17.494Z,974.23
2018-03-31T11:50:17.681Z,974.25
2018-03-31T11:51:18.141Z,974.27
2018-03-31T11:52:18.046Z,974.25
2018-03-31T11:53:18.166Z,974.26
2018-03-31T11:54:18.326Z,974.25
2018-03-31T11:55:18.500Z,974.26
2018-03-31T11:56:18.688Z,974.30
2018-03-31T11:57:18.823Z,974.30
2018-03-31T11:58:19.021Z,974.35
2018-03-31T11:59:19.161Z,974.30
2018-03-31T12:00:19.324Z,974.32
2018-03-31T12:01:19.493Z,974.36
2018-03-31T12:02:19.653Z,974.33
2018-03-31T12:03:19.814Z,974.35
2018-03-31T12:04:20.012Z,974.37
2018-03-31T12:05:20.168Z,974.36
2018-03-31T12:06:20.327Z,974.38
2018-03-31T12:07:20.521Z,974.39
2018-03-31T12:08:20.677Z,974.33
2018-03-31T12:09:20.833Z,974.32
2018-03-31T12:10:20.998Z,974.34
2018-03-31T12:11:21.172Z,974.37
2018-03-31T12:12:21.395Z,974.36
2018-03-31T12:13:21.499Z,974.37
2018-03-31T12:14:21.668Z,974.37
2018-03-31T12:15:21.840Z,974.42
2018-03-31T12:16:22.027Z,974.41
2018-03-31T12:17:22.194Z,974.36
2018-03-31T12:18:22.414Z,974.39
2018-03-31T12:19:30.194Z,974.39
2018-03-31T12:20:22.722Z,974.41
2018-03-31T12:21:22.947Z,974.39
2018-03-31T12:22:25.051Z,974.38
2018-03-31T12:23:23.350Z,974.39
2018-03-31T12:24:23.528Z,974.39
2018-03-31T12:25:23.697Z,974.38
2018-03-31T12:26:23.879Z,974.37
2018-03-31T12:27:24.062Z,974.35
2018-03-31T12:28:24.223Z,974.34
2018-03-31T12:29:24.402Z,974.35
2018-03-31T12:30:24.588Z,974.30
2018-03-31T12:31:24.776Z,974.27
2018-03-31T12:32:24.967Z,974.25
2018-03-31T12:33:25.127Z,974.28
2018-03-31T12:34:25.307Z,974.30